ESOK Airport Information

Runway Information
Runway 03 Length 8255 ft width 148 ft
Elevation 332 ft Threshold 0 ft Heading 26
Runway 21 Length 8255 ft Width 148 ft
Elevation 352 ft Threshold 0 ft Heading 206
Runway 03L Length 1840 ft width 170 ft
Elevation 0 ft Threshold 0 ft Heading 26
Runway 21R Length 1840 ft Width 170 ft
Elevation 0 ft Threshold 0 ft Heading 206
Airport Frequencies
Type TWR Name TWR Frequency 119.45 MHZ
Airport Navaids
Type VOR-DME Name Karlstad Frequency 117800 KHZ
Airport Weather Information & NOTAM
ADDS - METARS form results

(1819 UTC 18 March 2019)
Data provider http://aviationweather.gov/metar/data/
 
METAR text: ESOK 181750Z 32012KT CAVOK 03/M03 Q1003
Conditions at: ESOK (KARLSTAD NORTH , SE) observed 1750 UTC 18 March 2019
Temperature: 3.0°C (37°F)
Dewpoint: -3.0°C (27°F) [RH = 65%]
Pressure (altimeter): 29.62 inches Hg (1003.0 mb)
Winds: from the NW (320 degrees) at 14 MPH (12 knots; 6.2 m/s)
Visibility: 6 or more miles (10+ km)
Ceiling: ceiling and visibility are OK
Clouds: unknown
Weather: no significant weather observed at this time

METAR text: ESOK 181720Z 33012KT CAVOK 03/M03 Q1002
Conditions at: ESOK (KARLSTAD NORTH , SE) observed 1720 UTC 18 March 2019
Temperature: 3.0°C (37°F)
Dewpoint: -3.0°C (27°F) [RH = 65%]
Pressure (altimeter): 29.59 inches Hg (1002.0 mb)
Winds: from the NNW (330 degrees) at 14 MPH (12 knots; 6.2 m/s)
Visibility: 6 or more miles (10+ km)
Ceiling: ceiling and visibility are OK
Clouds: unknown
Weather: no significant weather observed at this time

Forecast for: ESOK (KARLSTAD NORTH , SE)
Text: TAF ESOK 181730Z 1818/1820 33006KT CAVOK
Forecast period: 1800 to 2000 UTC 18 March 2019
Forecast type: FROM: standard forecast or significant change
Winds: from the NNW (330 degrees) at 7 MPH (6 knots; 3.1 m/s)
Visibility: 6 or more miles 10+ km)
Ceiling: unknown
Clouds: missing
Weather: NSW  (no significant weather)